createdAt,value
2023-08-26T00:03:06.459Z,100776.00
2023-08-26T00:08:08.095Z,100761.41
2023-08-26T00:13:09.598Z,100761.41
2023-08-26T00:18:12.847Z,100764.75
2023-08-26T00:23:14.432Z,100769.41
2023-08-26T00:28:16.518Z,100767.81
2023-08-26T00:33:19.035Z,100771.78
2023-08-26T00:38:20.631Z,100777.72
2023-08-26T00:43:22.187Z,100768.19
2023-08-26T00:48:23.813Z,100765.72
2023-08-26T00:53:25.899Z,100772.09
2023-08-26T00:58:28.410Z,100761.09
2023-08-26T01:03:30.042Z,100761.13
2023-08-26T01:08:32.693Z,100771.03
2023-08-26T01:13:59.832Z,100771.28
2023-08-26T01:19:03.323Z,100762.19
2023-08-26T01:24:06.215Z,100762.31
2023-08-26T01:29:09.076Z,100751.94
2023-08-26T01:34:21.261Z,100757.34
2023-08-26T01:39:23.161Z,100744.25
2023-08-26T01:44:25.783Z,100734.59
2023-08-26T01:49:27.356Z,100740.25
2023-08-26T01:54:28.988Z,100757.31
2023-08-26T01:59:30.516Z,100751.53
2023-08-26T02:04:33.176Z,100745.06
2023-08-26T02:09:35.091Z,100756.59
2023-08-26T02:14:36.617Z,100751.00
2023-08-26T02:19:38.231Z,100752.91
2023-08-26T02:24:39.749Z,100748.97
2023-08-26T02:29:41.334Z,100756.22
2023-08-26T02:34:42.868Z,100748.22
2023-08-26T02:39:44.411Z,100753.66
2023-08-26T02:44:46.341Z,100758.28
2023-08-26T02:49:47.948Z,100763.78
2023-08-26T02:54:49.546Z,100766.28
2023-08-26T02:59:51.047Z,100771.97
2023-08-26T03:04:53.139Z,100779.38
2023-08-26T03:09:54.785Z,100776.22
2023-08-26T03:14:57.190Z,100787.97
2023-08-26T03:19:58.715Z,100793.06
2023-08-26T03:25:00.260Z,100794.78
2023-08-26T03:30:01.989Z,100802.44
2023-08-26T03:35:04.212Z,100811.28
2023-08-26T03:40:09.921Z,100808.00
2023-08-26T03:45:11.506Z,100811.72
2023-08-26T03:50:13.044Z,100805.00
2023-08-26T03:55:17.300Z,100810.56
2023-08-26T04:00:18.831Z,100820.22
2023-08-26T04:05:20.377Z,100820.72
2023-08-26T04:10:22.996Z,100818.22
2023-08-26T04:15:25.782Z,100824.97
2023-08-26T04:20:27.280Z,100838.06
2023-08-26T04:25:29.071Z,100841.41
2023-08-26T04:30:30.623Z,100835.66
2023-08-26T04:35:35.938Z,100834.63
2023-08-26T04:40:38.173Z,100839.28
2023-08-26T04:45:40.484Z,100851.84
2023-08-26T04:50:44.372Z,100861.84
2023-08-26T04:55:50.753Z,100870.78
2023-08-26T05:00:53.896Z,100872.00
2023-08-26T05:05:56.002Z,100872.78
2023-08-26T05:10:57.506Z,100866.03
2023-08-26T05:15:59.013Z,100870.25
2023-08-26T05:21:01.064Z,100872.88
2023-08-26T05:26:02.599Z,100895.94
2023-08-26T05:31:04.220Z,100897.78
2023-08-26T05:36:06.013Z,100906.84
2023-08-26T05:41:07.565Z,100903.28
2023-08-26T05:46:09.208Z,100902.16
2023-08-26T05:51:10.791Z,100899.38
2023-08-26T05:56:12.358Z,100906.47
2023-08-26T06:01:14.169Z,100891.59
2023-08-26T06:06:15.684Z,100906.66
2023-08-26T06:11:17.208Z,100907.22
2023-08-26T06:16:22.881Z,100899.00
2023-08-26T06:21:24.595Z,100896.34
2023-08-26T06:26:26.193Z,100896.38
2023-08-26T06:31:27.734Z,100902.63
2023-08-26T06:36:30.408Z,100906.06
2023-08-26T06:41:34.114Z,100902.31
2023-08-26T06:46:35.721Z,100901.75
2023-08-26T06:51:37.212Z,100899.16
2023-08-26T06:56:38.738Z,100902.56
2023-08-26T07:01:40.296Z,100904.78
2023-08-26T07:06:42.203Z,100908.69
2023-08-26T07:11:43.713Z,100912.66
2023-08-26T07:16:45.204Z,100921.28
2023-08-26T07:21:47.303Z,100920.22
2023-08-26T07:26:48.817Z,100920.53
2023-08-26T07:31:50.362Z,100919.34
2023-08-26T07:36:52.347Z,100914.72
2023-08-26T07:41:53.851Z,100908.47
2023-08-26T07:46:56.260Z,100916.38
2023-08-26T07:51:58.086Z,100913.75
2023-08-26T07:57:01.184Z,100922.22
2023-08-26T08:02:02.809Z,100917.75
2023-08-26T08:07:04.554Z,100927.19
2023-08-26T08:12:06.504Z,100924.19
2023-08-26T08:17:08.242Z,100929.25
2023-08-26T08:22:09.751Z,100928.00
2023-08-26T08:27:11.274Z,100923.16
2023-08-26T08:32:13.637Z,100928.06
2023-08-26T08:37:15.125Z,100938.09
2023-08-26T08:42:17.928Z,100949.34
2023-08-26T08:47:19.614Z,100932.09
2023-08-26T08:52:23.840Z,100947.41
2023-08-26T08:57:36.393Z,100940.56
2023-08-26T09:02:41.979Z,100951.00
2023-08-26T09:07:44.421Z,100957.81
2023-08-26T09:12:45.963Z,100957.47
2023-08-26T09:17:47.805Z,100948.38
2023-08-26T09:22:49.449Z,100950.75
2023-08-26T09:27:50.940Z,100948.38
2023-08-26T09:32:54.682Z,100955.97
2023-08-26T09:37:59.881Z,100954.53
2023-08-26T09:43:05.505Z,100947.97
2023-08-26T09:48:08.340Z,100953.22
2023-08-26T09:53:10.100Z,100957.13
2023-08-26T09:58:11.620Z,100955.97
2023-08-26T10:03:13.804Z,100954.16
2023-08-26T10:08:15.486Z,100954.44
2023-08-26T10:13:23.064Z,100949.91
2023-08-26T10:18:36.026Z,100947.84
2023-08-26T10:23:39.516Z,100963.41
2023-08-26T10:28:42.328Z,100963.13
2023-08-26T10:34:14.269Z,100959.66
2023-08-26T10:39:20.043Z,100956.97
2023-08-26T10:44:31.565Z,100952.69
2023-08-26T10:49:34.768Z,100944.53
2023-08-26T10:54:37.156Z,100941.25
2023-08-26T10:59:41.216Z,100938.03
2023-08-26T11:04:43.983Z,100921.91
2023-08-26T11:09:46.569Z,100933.06
2023-08-26T11:14:48.105Z,100944.59
2023-08-26T11:19:49.712Z,100937.63
2023-08-26T11:24:51.956Z,100936.91
2023-08-26T11:29:53.517Z,100929.59
2023-08-26T11:34:55.066Z,100928.97
2023-08-26T11:40:00.505Z,100929.53
2023-08-26T11:45:02.733Z,100923.41
2023-08-26T11:50:04.941Z,100928.44
2023-08-26T11:55:08.803Z,100923.09
2023-08-26T12:00:10.707Z,100933.97
2023-08-26T12:05:17.065Z,100932.72
2023-08-26T12:10:19.877Z,100943.50
2023-08-26T12:15:21.413Z,100934.91
2023-08-26T12:20:28.314Z,100950.75
2023-08-26T12:25:34.408Z,100944.84
2023-08-26T12:30:39.800Z,100930.81
2023-08-26T12:35:41.647Z,100930.75
2023-08-26T12:40:48.761Z,100930.31
2023-08-26T12:45:51.002Z,100932.84
2023-08-26T12:50:52.928Z,100928.97
2023-08-26T12:55:54.473Z,100934.16
2023-08-26T13:00:56.193Z,100931.38
2023-08-26T13:05:57.815Z,100933.38
2023-08-26T13:11:01.910Z,100933.19
2023-08-26T13:16:03.520Z,100931.56
2023-08-26T13:21:05.072Z,100928.63
2023-08-26T13:26:06.593Z,100933.06
2023-08-26T13:31:08.191Z,100936.56
2023-08-26T13:36:09.948Z,100927.13
2023-08-26T13:41:11.446Z,100930.09
2023-08-26T13:46:14.204Z,100925.22
2023-08-26T13:51:19.584Z,100919.22
2023-08-26T13:56:21.549Z,100927.44
2023-08-26T14:01:23.096Z,100928.84
2023-08-26T14:06:24.662Z,100918.75
2023-08-26T14:11:28.350Z,100920.84
2023-08-26T14:16:31.080Z,100920.94
2023-08-26T14:21:32.830Z,100908.56
2023-08-26T14:26:34.330Z,100908.13
2023-08-26T14:31:35.832Z,100911.47
2023-08-26T14:36:37.377Z,100915.16
2023-08-26T14:41:38.878Z,100909.25
2023-08-26T14:46:42.028Z,100910.28
2023-08-26T14:51:43.871Z,100909.22
2023-08-26T14:56:45.348Z,100904.09
2023-08-26T15:01:46.876Z,100908.25
2023-08-26T15:06:50.167Z,100904.72
2023-08-26T15:11:51.684Z,100913.84
2023-08-26T15:16:53.177Z,100908.19
2023-08-26T15:21:54.671Z,100905.88
2023-08-26T15:26:56.169Z,100896.13
2023-08-26T15:31:57.810Z,100900.88
2023-08-26T15:37:00.013Z,100891.47
2023-08-26T15:42:01.591Z,100888.88
2023-08-26T15:47:03.471Z,100881.22
2023-08-26T15:52:05.593Z,100883.72
2023-08-26T15:57:07.130Z,100877.53
2023-08-26T16:02:08.724Z,100888.00
2023-08-26T16:07:10.266Z,100877.59
2023-08-26T16:12:17.385Z,100885.38
2023-08-26T16:17:18.878Z,100888.56
2023-08-26T16:22:21.432Z,100880.13
2023-08-26T16:27:22.970Z,100886.94
2023-08-26T16:32:24.864Z,100902.72
2023-08-26T16:37:26.656Z,100906.88
2023-08-26T16:42:28.214Z,100915.97
2023-08-26T16:47:29.891Z,100920.25
2023-08-26T16:52:32.492Z,100922.66
2023-08-26T16:57:34.025Z,100918.19
2023-08-26T17:02:37.370Z,100913.75
2023-08-26T17:07:39.341Z,100920.94
2023-08-26T17:12:40.824Z,100914.75
2023-08-26T17:17:42.438Z,100905.72
2023-08-26T17:22:44.017Z,100913.69
2023-08-26T17:27:45.551Z,100925.09
2023-08-26T17:32:49.206Z,100924.00
2023-08-26T17:37:50.869Z,100933.66
2023-08-26T17:42:52.356Z,100936.56
2023-08-26T17:47:53.879Z,100944.06
2023-08-26T17:52:55.515Z,100937.53
2023-08-26T17:57:57.046Z,100944.16
2023-08-26T18:02:58.860Z,100952.72
2023-08-26T18:08:05.378Z,100956.88
2023-08-26T18:13:10.045Z,100952.31
2023-08-26T18:18:11.638Z,100959.41
2023-08-26T18:23:13.167Z,100969.59
2023-08-26T18:28:14.825Z,100981.03
2023-08-26T18:33:16.558Z,100977.06
2023-08-26T18:38:22.861Z,100992.25
2023-08-26T18:43:24.508Z,100985.38
2023-08-26T18:48:26.159Z,100983.19
2023-08-26T18:53:28.381Z,100987.88
2023-08-26T18:58:29.882Z,100997.59
2023-08-26T19:03:31.464Z,101002.44
2023-08-26T19:08:33.294Z,100998.00
2023-08-26T19:13:34.849Z,100993.09
2023-08-26T19:18:36.338Z,100999.72
2023-08-26T19:23:38.307Z,100996.66
2023-08-26T19:28:40.322Z,101004.81
2023-08-26T19:33:41.835Z,101000.34
2023-08-26T19:38:43.416Z,100994.97
2023-08-26T19:43:45.210Z,100984.56
2023-08-26T19:48:55.846Z,100979.81
2023-08-26T19:53:58.964Z,100980.41
2023-08-26T19:59:00.544Z,100991.28
2023-08-26T20:04:02.032Z,100983.44
2023-08-26T20:09:03.772Z,100977.84
2023-08-26T20:14:05.342Z,100978.25
2023-08-26T20:19:07.016Z,100959.88
2023-08-26T20:24:08.729Z,100957.97
2023-08-26T20:29:10.214Z,100960.38
2023-08-26T20:34:11.756Z,100957.63
2023-08-26T20:39:13.259Z,100961.03
2023-08-26T20:44:14.824Z,100957.63
2023-08-26T20:49:16.332Z,100958.38
2023-08-26T20:54:17.831Z,100974.31
2023-08-26T20:59:21.740Z,100971.31
2023-08-26T21:04:23.243Z,100958.16
2023-08-26T21:09:24.865Z,100965.31
2023-08-26T21:14:26.345Z,100949.03
2023-08-26T21:19:27.861Z,100954.03
2023-08-26T21:24:29.749Z,100943.63
2023-08-26T21:29:31.356Z,100941.06
2023-08-26T21:34:32.846Z,100953.63
2023-08-26T21:39:34.319Z,100957.09
2023-08-26T21:44:35.959Z,100953.00
2023-08-26T21:49:38.380Z,100945.38
2023-08-26T21:54:39.882Z,100941.63
2023-08-26T21:59:41.414Z,100947.28
2023-08-26T22:04:42.908Z,100942.28
2023-08-26T22:09:44.599Z,100941.50
2023-08-26T22:14:46.161Z,100932.97
2023-08-26T22:19:47.667Z,100944.66
2023-08-26T22:24:49.308Z,100933.84
2023-08-26T22:29:50.826Z,100930.50
2023-08-26T22:34:52.320Z,100928.78
2023-08-26T22:39:53.821Z,100925.44
2023-08-26T22:44:55.308Z,100915.56
2023-08-26T22:50:00.467Z,100914.50
2023-08-26T22:55:01.996Z,100910.03
2023-08-26T23:00:04.723Z,100912.75
2023-08-26T23:05:06.460Z,100909.00
2023-08-26T23:10:10.454Z,100912.84
2023-08-26T23:15:12.678Z,100907.00
2023-08-26T23:20:14.179Z,100908.31
2023-08-26T23:25:15.780Z,100891.28
2023-08-26T23:30:17.421Z,100887.94
2023-08-26T23:35:19.005Z,100883.22
2023-08-26T23:40:21.262Z,100887.47
2023-08-26T23:45:22.772Z,100884.88
2023-08-26T23:50:24.287Z,100881.28
2023-08-26T23:55:25.879Z,100883.28
